Clio, Michigan
Current Conditions -  °F | °C
As of 11:53 PM on Tuesday 25 Nov 2014 (Local Time) from KFNT Reporting Station
Overcast Overcast  
Wind Chill: 32°   Ceiling: 2300
Heat Index: 32°   Visibility: 10mi
Dew Point: 22°   Wind: 3mph
Humidity: 66%   Direction: 220°SW
Pressure: 30.19"   Gusts: NA
Location:  43.18°N, 83.73°W
Report Text: KFNT 260453Z AUTO 22003KT 10SM OVC023 00/M06 A3019 RMK AO2 SLP234 T00001056 400111006
Loading
Personal Weather Stations






























Interactive Weather Map New forecast layout! Learn more

10-Day Weather Forecast

Advertisements
Track Severe Weather on mobile